Portland — WDG2201 — position and weather

sailwx.info

Track history (hours):
 
Tides and Currents Weather Stations Pressure Air Temp Water Temp Dewpoint Dewpoint Depression Visibility Wind Speed Wind Dir Waves Ship Positions

Portland

Owner: Shaver Transportation Company, Portland, OR. More information available from US FCC via Universal Licensing System and Coast Guard Vessel Documentation Center.

Last reported at 2016-May-01 22:25 UTC. Time now 2016-May-01 23:06 UTC.
Position N 46°05' W 122°56'.

Length 27 m; draft 4 m.

Type: Towing. MMSI: 367315814.

Date/timePositionNaut miles runAvg speedWind from/ knotsBaromVisibWave heightAir tempDewpointWater temp
2016-May-01 22:25N 46°05' W 122°56'0 0.0
2016-May-01 21:31N 46°05' W 122°56'0 0.0
2016-May-01 20:28N 46°05' W 122°56'0 0.0
2016-May-01 19:31N 46°05' W 122°56'0 0.0
2016-May-01 18:28N 46°05' W 122°56'0 0.0
2016-May-01 17:31N 46°05' W 122°56'0 0.0
2016-May-01 16:31N 46°05' W 122°56'0 0.0
2016-May-01 15:28N 46°05' W 122°56'0 0.0
2016-May-01 14:28N 46°05' W 122°56'0 0.0
2016-May-01 13:31N 46°05' W 122°56'0 0.0
2016-May-01 12:31N 46°05' W 122°56'0 0.0
2016-May-01 11:22N 46°05' W 122°56'0 0.0
2016-May-01 10:31N 46°05' W 122°56'0 0.0
2016-May-01 09:28N 46°05' W 122°56'0 0.0
2016-May-01 08:28N 46°05' W 122°56'0 0.0
2016-May-01 07:28N 46°05' W 122°56'0 0.0
2016-May-01 06:04N 46°05' W 122°56'0 0.0
2016-May-01 05:31N 46°05' W 122°56'0 0.0
2016-May-01 04:19N 46°05' W 122°56'0 0.0
2016-May-01 03:31N 46°05' W 122°56'0 0.0
2016-May-01 02:23N 46°05' W 122°56'0 0.0
2016-May-01 01:34N 46°05' W 122°56'0 0.0
2016-May-01 00:33N 46°05' W 122°56'1 0.9
2016-Apr-30 23:33N 46°06' W 122°57'1 0.9
2016-Apr-30 22:33N 46°05' W 122°56'1 1.0
2016-Apr-30 21:34N 46°06' W 122°57'1 1.0
2016-Apr-30 20:33N 46°05' W 122°56'0 0.0
2016-Apr-30 19:33N 46°05' W 122°56'0 0.0
2016-Apr-30 18:33N 46°05' W 122°56'0 0.0
2016-Apr-30 17:33N 46°05' W 122°56'0 0.0
2016-Apr-30 16:33N 46°05' W 122°56'0 0.0
2016-Apr-30 15:33N 46°05' W 122°56'0 0.0
2016-Apr-30 14:34N 46°05' W 122°56'0 0.0
2016-Apr-30 13:34N 46°05' W 122°56'0 0.0
2016-Apr-30 12:33N 46°05' W 122°56'0 0.0
2016-Apr-30 11:34N 46°05' W 122°56'0 0.0
2016-Apr-30 10:34N 46°05' W 122°56'0 0.0
2016-Apr-30 09:34N 46°05' W 122°56'0 0.0
2016-Apr-30 08:34N 46°05' W 122°56'0 0.0
2016-Apr-30 07:33N 46°05' W 122°56'0 0.0
2016-Apr-30 06:33N 46°05' W 122°56'0 0.0
2016-Apr-30 05:34N 46°05' W 122°56'0 0.0
2016-Apr-30 04:34N 46°05' W 122°56'0 0.0
2016-Apr-30 03:34N 46°05' W 122°56'0 0.0
2016-Apr-30 02:34N 46°05' W 122°56'0 0.0
2016-Apr-30 01:33N 46°05' W 122°56'0 0.1
2016-Apr-30 00:34N 46°05' W 122°56'8 7.6
2016-Apr-29 23:34N 45°59' W 122°50'0 0.4
2016-Apr-29 22:34N 45°59' W 122°50'7 6.7
2016-Apr-29 21:33N 46°05' W 122°55'2 2.2
2016-Apr-29 20:33N 46°06' W 122°58'1 1.2
2016-Apr-29 19:33N 46°07' W 122°59'3 2.5
2016-Apr-29 18:29N 46°05' W 122°56'0 0.0
2016-Apr-29 17:29N 46°05' W 122°56'0 0.0
2016-Apr-29 16:29N 46°05' W 122°56'0 0.0
2016-Apr-29 15:32N 46°05' W 122°56'0 0.0
2016-Apr-29 14:32N 46°05' W 122°56'0 0.0
2016-Apr-29 13:29N 46°05' W 122°56'0 0.0
2016-Apr-29 12:29N 46°05' W 122°56'0 0.0
2016-Apr-29 11:32N 46°05' W 122°56'0 0.0
2016-Apr-29 10:32N 46°05' W 122°56'0 0.0
2016-Apr-29 09:32N 46°05' W 122°56'0 0.0
2016-Apr-29 08:32N 46°05' W 122°56'0 0.0
2016-Apr-29 07:32N 46°05' W 122°56'0 0.0
2016-Apr-29 06:32N 46°05' W 122°56'0 0.0
2016-Apr-29 05:29N 46°05' W 122°56'0 0.0
2016-Apr-29 04:32N 46°05' W 122°56'0 0.0
2016-Apr-29 03:29N 46°05' W 122°56'0 0.0
2016-Apr-29 02:26N 46°05' W 122°56'0 0.0
2016-Apr-29 01:29N 46°05' W 122°56'0 0.0
2016-Apr-29 00:29N 46°05' W 122°56'0 0.0
2016-Apr-28 23:32N 46°05' W 122°56'0 0.0
2016-Apr-28 22:26N 46°05' W 122°56'0 0.0
2016-Apr-28 21:23N 46°05' W 122°56'0 0.0
2016-Apr-28 20:29N 46°05' W 122°56'0 0.0
2016-Apr-28 19:32N 46°05' W 122°56'0 0.0
2016-Apr-28 18:29N 46°05' W 122°56'0 0.0
2016-Apr-28 17:26N 46°05' W 122°56'0 0.0
2016-Apr-28 16:29N 46°05' W 122°56'0 0.0
2016-Apr-28 15:29N 46°05' W 122°56'0 0.0
2016-Apr-28 14:29N 46°05' W 122°56'0 0.0
2016-Apr-28 13:32N 46°05' W 122°56'1 1.0
2016-Apr-28 12:33N 46°06' W 122°57'1 1.2
2016-Apr-28 11:33N 46°06' W 122°55'0 0.3
2016-Apr-28 10:33N 46°05' W 122°56'0 0.0
2016-Apr-28 09:33N 46°05' W 122°56'0 0.0
2016-Apr-28 08:33N 46°05' W 122°56'0 0.0
2016-Apr-28 07:33N 46°05' W 122°56'0 0.0
2016-Apr-28 06:33N 46°05' W 122°56'0 0.0
2016-Apr-28 05:33N 46°05' W 122°56'0 0.0
2016-Apr-28 04:33N 46°05' W 122°56'0 0.0
2016-Apr-28 03:33N 46°05' W 122°56'0 0.0
2016-Apr-28 02:33N 46°05' W 122°56'0 0.0
2016-Apr-28 01:33N 46°05' W 122°56'0 0.0
2016-Apr-28 00:33N 46°05' W 122°56'0 0.0
2016-Apr-27 23:33N 46°05' W 122°56'0 0.0
2016-Apr-27 22:33N 46°05' W 122°56'0 0.0
2016-Apr-27 21:33N 46°05' W 122°56'0 0.0
2016-Apr-27 20:33N 46°05' W 122°56'0 0.0
2016-Apr-27 19:33N 46°05' W 122°56'0 0.0
2016-Apr-27 18:33N 46°05' W 122°56'0 0.0
2016-Apr-27 17:33N 46°05' W 122°56'0 0.0
2016-Apr-27 16:33N 46°05' W 122°56'0 0.0
2016-Apr-27 15:33N 46°05' W 122°56'0 0.0
2016-Apr-27 14:33N 46°05' W 122°56'0 0.0
2016-Apr-27 13:33N 46°05' W 122°56'0 0.3
2016-Apr-27 12:34N 46°06' W 122°56'1 0.8
2016-Apr-27 11:33N 46°05' W 122°55'1 1.5
2016-Apr-27 10:33N 46°06' W 122°57'0 0.5
2016-Apr-27 09:31N 46°06' W 122°56'1 0.4
2016-Apr-27 08:17N 46°05' W 122°56'0 0.0
2016-Apr-27 07:29N 46°05' W 122°56'0 0.0
2016-Apr-27 06:33N 46°05' W 122°56'0 0.0
2016-Apr-27 05:33N 46°05' W 122°56'0 0.0
2016-Apr-27 04:34N 46°05' W 122°56'0 0.0
2016-Apr-27 03:34N 46°05' W 122°56'0 0.0
2016-Apr-27 02:33N 46°05' W 122°56'0 0.0
2016-Apr-27 01:30N 46°05' W 122°56'0 0.0
2016-Apr-27 00:34N 46°05' W 122°56'0 0.0
2016-Apr-26 23:34N 46°05' W 122°56'0 0.0
2016-Apr-26 22:34N 46°05' W 122°56'0 0.0
2016-Apr-26 21:34N 46°05' W 122°56'0 0.0
2016-Apr-26 20:34N 46°05' W 122°56'0 0.0
2016-Apr-26 19:34N 46°05' W 122°56'0 0.0
2016-Apr-26 18:34N 46°05' W 122°56'0 0.0
2016-Apr-26 17:33N 46°05' W 122°56'0 0.0
2016-Apr-26 16:33N 46°05' W 122°56'2 1.8
2016-Apr-26 15:34N 46°04' W 122°54'4 3.5
2016-Apr-26 14:34N 46°01' W 122°52'1 0.5
2016-Apr-26 13:33N 46°02' W 122°52'0 0.2
2016-Apr-26 12:33N 46°02' W 122°52'4 4.4
2016-Apr-26 11:33N 46°05' W 122°56'0 0.0
2016-Apr-26 10:33N 46°05' W 122°56'0 0.0
2016-Apr-26 09:33N 46°05' W 122°56'0 0.0
2016-Apr-26 08:33N 46°05' W 122°56'0 0.0
2016-Apr-26 07:33N 46°05' W 122°56'0 0.0
2016-Apr-26 06:33N 46°05' W 122°56'0 0.0
2016-Apr-26 05:34N 46°05' W 122°56'0 0.0
2016-Apr-26 04:33N 46°05' W 122°56'0 0.0
2016-Apr-26 03:33N 46°05' W 122°56'0 0.0
2016-Apr-26 02:34N 46°05' W 122°56'0 0.0
2016-Apr-26 01:34N 46°05' W 122°56'0 0.0
2016-Apr-26 00:33N 46°05' W 122°56'3 3.1
2016-Apr-25 23:33N 46°03' W 122°53'1 1.2
2016-Apr-25 22:33N 46°02' W 122°53'3 2.6
2016-Apr-25 21:33N 46°04' W 122°54'2 1.9
2016-Apr-25 20:33N 46°05' W 122°56'0 0.0
2016-Apr-25 19:33N 46°05' W 122°56'0 0.0
2016-Apr-25 18:33N 46°05' W 122°56'0 0.0
2016-Apr-25 17:33N 46°05' W 122°56'0 0.0
2016-Apr-25 16:33N 46°05' W 122°56'0 0.5
2016-Apr-25 15:33N 46°06' W 122°56'4 0.1
2016-Apr-24 00:34N 46°03' W 122°53'4 4.4
2016-Apr-23 23:33N 45°59' W 122°50'7 7.0
2016-Apr-23 22:33N 46°05' W 122°55'1 0.8
2016-Apr-23 21:33N 46°05' W 122°56'0 0.0
2016-Apr-23 20:33N 46°05' W 122°56'0 0.0
2016-Apr-23 19:33N 46°05' W 122°56'0 0.0
2016-Apr-23 18:34N 46°05' W 122°56'0 0.0
2016-Apr-23 17:34N 46°05' W 122°56'0 0.0
2016-Apr-23 16:33N 46°05' W 122°56'1 1.2
2016-Apr-23 15:33N 46°06' W 122°57'1 1.2
2016-Apr-23 14:33N 46°05' W 122°56'0 0.0
2016-Apr-23 13:33N 46°05' W 122°56'1 0.6
2016-Apr-23 12:33N 46°06' W 122°56'1 0.6
2016-Apr-23 11:33N 46°05' W 122°56'0 0.0
2016-Apr-23 10:33N 46°05' W 122°56'0 0.0
2016-Apr-23 09:27N 46°05' W 122°56'0 0.0
2016-Apr-23 08:33N 46°05' W 122°56'0 0.0
2016-Apr-23 07:33N 46°05' W 122°56'0 0.0
2016-Apr-23 06:33N 46°05' W 122°56'0 0.0
2016-Apr-23 05:33N 46°05' W 122°56'0 0.0
2016-Apr-23 04:33N 46°05' W 122°56'0 0.0
2016-Apr-23 03:33N 46°05' W 122°56'0 0.0
2016-Apr-23 02:33N 46°05' W 122°56'0 0.0
2016-Apr-23 01:27N 46°05' W 122°56'0 0.0
2016-Apr-23 00:33N 46°05' W 122°56'0 0.0
2016-Apr-22 23:27N 46°05' W 122°56'0 0.2
2016-Apr-22 22:33N 46°06' W 122°56'1 1.4
2016-Apr-22 21:30N 46°07' W 122°58'2 1.7
2016-Apr-22 20:32N 46°05' W 122°56'0 0.0
2016-Apr-22 19:32N 46°05' W 122°56'0 0.0
2016-Apr-22 18:32N 46°05' W 122°56'0 0.0
2016-Apr-22 17:32N 46°05' W 122°56'0 0.0
2016-Apr-22 16:32N 46°05' W 122°56'0 0.0
2016-Apr-22 15:32N 46°05' W 122°56'0 0.0
2016-Apr-22 14:32N 46°05' W 122°56'0 0.0
2016-Apr-22 13:26N 46°05' W 122°56'0 0.0
2016-Apr-22 12:26N 46°05' W 122°56'0 0.0
2016-Apr-22 11:32N 46°05' W 122°56'0 0.0
2016-Apr-22 10:29N 46°05' W 122°56'0 0.0
2016-Apr-22 09:32N 46°05' W 122°56'0 0.0
2016-Apr-22 08:32N 46°05' W 122°56'0 0.0
2016-Apr-22 07:32N 46°05' W 122°56'0 0.0
2016-Apr-22 06:32N 46°05' W 122°56'0 0.0
2016-Apr-22 05:29N 46°05' W 122°56'0 0.0
2016-Apr-22 04:26N 46°05' W 122°56'0 0.0
2016-Apr-22 03:26N 46°05' W 122°56'0 0.0
2016-Apr-22 02:32N 46°05' W 122°56'0 0.0
2016-Apr-22 01:32N 46°05' W 122°56'0 0.0
2016-Apr-22 00:32N 46°05' W 122°56'0 0.0
2016-Apr-21 23:32N 46°05' W 122°56'0 0.0
2016-Apr-21 22:26N 46°05' W 122°56'  
Track history (hours):
 
Tides and Currents Weather Stations Pressure Air Temp Water Temp Dewpoint Dewpoint Depression Visibility Wind Speed Wind Dir Waves Ship Positions

Portland

Owner: Shaver Transportation Company, Portland, OR. More information available from US FCC via Universal Licensing System and Coast Guard Vessel Documentation Center.

Last reported at 2016-May-01 22:25 UTC. Time now 2016-May-01 23:06 UTC.
Position N 46°05' W 122°56'.

Length 27 m; draft 4 m.

Type: Towing. MMSI: 367315814.

Date/timePositionNaut miles runAvg speedWind from/ knotsBaromVisibWave heightAir tempDewpointWater temp
2016-May-01 22:25N 46°05' W 122°56'0 0.0
2016-May-01 21:31N 46°05' W 122°56'0 0.0
2016-May-01 20:28N 46°05' W 122°56'0 0.0
2016-May-01 19:31N 46°05' W 122°56'0 0.0
2016-May-01 18:28N 46°05' W 122°56'0 0.0
2016-May-01 17:31N 46°05' W 122°56'0 0.0
2016-May-01 16:31N 46°05' W 122°56'0 0.0
2016-May-01 15:28N 46°05' W 122°56'0 0.0
2016-May-01 14:28N 46°05' W 122°56'0 0.0
2016-May-01 13:31N 46°05' W 122°56'0 0.0
2016-May-01 12:31N 46°05' W 122°56'0 0.0
2016-May-01 11:22N 46°05' W 122°56'0 0.0
2016-May-01 10:31N 46°05' W 122°56'0 0.0
2016-May-01 09:28N 46°05' W 122°56'0 0.0
2016-May-01 08:28N 46°05' W 122°56'0 0.0
2016-May-01 07:28N 46°05' W 122°56'0 0.0
2016-May-01 06:04N 46°05' W 122°56'0 0.0
2016-May-01 05:31N 46°05' W 122°56'0 0.0
2016-May-01 04:19N 46°05' W 122°56'0 0.0
2016-May-01 03:31N 46°05' W 122°56'0 0.0
2016-May-01 02:23N 46°05' W 122°56'0 0.0
2016-May-01 01:34N 46°05' W 122°56'0 0.0
2016-May-01 00:33N 46°05' W 122°56'1 0.9
2016-Apr-30 23:33N 46°06' W 122°57'1 0.9
2016-Apr-30 22:33N 46°05' W 122°56'1 1.0
2016-Apr-30 21:34N 46°06' W 122°57'1 1.0
2016-Apr-30 20:33N 46°05' W 122°56'0 0.0
2016-Apr-30 19:33N 46°05' W 122°56'0 0.0
2016-Apr-30 18:33N 46°05' W 122°56'0 0.0
2016-Apr-30 17:33N 46°05' W 122°56'0 0.0
2016-Apr-30 16:33N 46°05' W 122°56'0 0.0
2016-Apr-30 15:33N 46°05' W 122°56'0 0.0
2016-Apr-30 14:34N 46°05' W 122°56'0 0.0
2016-Apr-30 13:34N 46°05' W 122°56'0 0.0
2016-Apr-30 12:33N 46°05' W 122°56'0 0.0
2016-Apr-30 11:34N 46°05' W 122°56'0 0.0
2016-Apr-30 10:34N 46°05' W 122°56'0 0.0
2016-Apr-30 09:34N 46°05' W 122°56'0 0.0
2016-Apr-30 08:34N 46°05' W 122°56'0 0.0
2016-Apr-30 07:33N 46°05' W 122°56'0 0.0
2016-Apr-30 06:33N 46°05' W 122°56'0 0.0
2016-Apr-30 05:34N 46°05' W 122°56'0 0.0
2016-Apr-30 04:34N 46°05' W 122°56'0 0.0
2016-Apr-30 03:34N 46°05' W 122°56'0 0.0
2016-Apr-30 02:34N 46°05' W 122°56'0 0.0
2016-Apr-30 01:33N 46°05' W 122°56'0 0.1
2016-Apr-30 00:34N 46°05' W 122°56'8 7.6
2016-Apr-29 23:34N 45°59' W 122°50'0 0.4
2016-Apr-29 22:34N 45°59' W 122°50'7 6.7
2016-Apr-29 21:33N 46°05' W 122°55'2 2.2
2016-Apr-29 20:33N 46°06' W 122°58'1 1.2
2016-Apr-29 19:33N 46°07' W 122°59'3 2.5
2016-Apr-29 18:29N 46°05' W 122°56'0 0.0
2016-Apr-29 17:29N 46°05' W 122°56'0 0.0
2016-Apr-29 16:29N 46°05' W 122°56'0 0.0
2016-Apr-29 15:32N 46°05' W 122°56'0 0.0
2016-Apr-29 14:32N 46°05' W 122°56'0 0.0
2016-Apr-29 13:29N 46°05' W 122°56'0 0.0
2016-Apr-29 12:29N 46°05' W 122°56'0 0.0
2016-Apr-29 11:32N 46°05' W 122°56'0 0.0
2016-Apr-29 10:32N 46°05' W 122°56'0 0.0
2016-Apr-29 09:32N 46°05' W 122°56'0 0.0
2016-Apr-29 08:32N 46°05' W 122°56'0 0.0
2016-Apr-29 07:32N 46°05' W 122°56'0 0.0
2016-Apr-29 06:32N 46°05' W 122°56'0 0.0
2016-Apr-29 05:29N 46°05' W 122°56'0 0.0
2016-Apr-29 04:32N 46°05' W 122°56'0 0.0
2016-Apr-29 03:29N 46°05' W 122°56'0 0.0
2016-Apr-29 02:26N 46°05' W 122°56'0 0.0
2016-Apr-29 01:29N 46°05' W 122°56'0 0.0
2016-Apr-29 00:29N 46°05' W 122°56'0 0.0
2016-Apr-28 23:32N 46°05' W 122°56'0 0.0
2016-Apr-28 22:26N 46°05' W 122°56'0 0.0
2016-Apr-28 21:23N 46°05' W 122°56'0 0.0
2016-Apr-28 20:29N 46°05' W 122°56'0 0.0
2016-Apr-28 19:32N 46°05' W 122°56'0 0.0
2016-Apr-28 18:29N 46°05' W 122°56'0 0.0
2016-Apr-28 17:26N 46°05' W 122°56'0 0.0
2016-Apr-28 16:29N 46°05' W 122°56'0 0.0
2016-Apr-28 15:29N 46°05' W 122°56'0 0.0
2016-Apr-28 14:29N 46°05' W 122°56'0 0.0
2016-Apr-28 13:32N 46°05' W 122°56'1 1.0
2016-Apr-28 12:33N 46°06' W 122°57'1 1.2
2016-Apr-28 11:33N 46°06' W 122°55'0 0.3
2016-Apr-28 10:33N 46°05' W 122°56'0 0.0
2016-Apr-28 09:33N 46°05' W 122°56'0 0.0
2016-Apr-28 08:33N 46°05' W 122°56'0 0.0
2016-Apr-28 07:33N 46°05' W 122°56'0 0.0
2016-Apr-28 06:33N 46°05' W 122°56'0 0.0
2016-Apr-28 05:33N 46°05' W 122°56'0 0.0
2016-Apr-28 04:33N 46°05' W 122°56'0 0.0
2016-Apr-28 03:33N 46°05' W 122°56'0 0.0
2016-Apr-28 02:33N 46°05' W 122°56'0 0.0
2016-Apr-28 01:33N 46°05' W 122°56'0 0.0
2016-Apr-28 00:33N 46°05' W 122°56'0 0.0
2016-Apr-27 23:33N 46°05' W 122°56'0 0.0
2016-Apr-27 22:33N 46°05' W 122°56'0 0.0
2016-Apr-27 21:33N 46°05' W 122°56'0 0.0
2016-Apr-27 20:33N 46°05' W 122°56'0 0.0
2016-Apr-27 19:33N 46°05' W 122°56'0 0.0
2016-Apr-27 18:33N 46°05' W 122°56'0 0.0
2016-Apr-27 17:33N 46°05' W 122°56'0 0.0
2016-Apr-27 16:33N 46°05' W 122°56'0 0.0
2016-Apr-27 15:33N 46°05' W 122°56'0 0.0
2016-Apr-27 14:33N 46°05' W 122°56'0 0.0
2016-Apr-27 13:33N 46°05' W 122°56'0 0.3
2016-Apr-27 12:34N 46°06' W 122°56'1 0.8
2016-Apr-27 11:33N 46°05' W 122°55'1 1.5
2016-Apr-27 10:33N 46°06' W 122°57'0 0.5
2016-Apr-27 09:31N 46°06' W 122°56'1 0.4
2016-Apr-27 08:17N 46°05' W 122°56'0 0.0
2016-Apr-27 07:29N 46°05' W 122°56'0 0.0
2016-Apr-27 06:33N 46°05' W 122°56'0 0.0
2016-Apr-27 05:33N 46°05' W 122°56'0 0.0
2016-Apr-27 04:34N 46°05' W 122°56'0 0.0
2016-Apr-27 03:34N 46°05' W 122°56'0 0.0
2016-Apr-27 02:33N 46°05' W 122°56'0 0.0
2016-Apr-27 01:30N 46°05' W 122°56'0 0.0
2016-Apr-27 00:34N 46°05' W 122°56'0 0.0
2016-Apr-26 23:34N 46°05' W 122°56'0 0.0
2016-Apr-26 22:34N 46°05' W 122°56'0 0.0
2016-Apr-26 21:34N 46°05' W 122°56'0 0.0
2016-Apr-26 20:34N 46°05' W 122°56'0 0.0
2016-Apr-26 19:34N 46°05' W 122°56'0 0.0
2016-Apr-26 18:34N 46°05' W 122°56'0 0.0
2016-Apr-26 17:33N 46°05' W 122°56'0 0.0
2016-Apr-26 16:33N 46°05' W 122°56'2 1.8
2016-Apr-26 15:34N 46°04' W 122°54'4 3.5
2016-Apr-26 14:34N 46°01' W 122°52'1 0.5
2016-Apr-26 13:33N 46°02' W 122°52'0 0.2
2016-Apr-26 12:33N 46°02' W 122°52'4 4.4
2016-Apr-26 11:33N 46°05' W 122°56'0 0.0
2016-Apr-26 10:33N 46°05' W 122°56'0 0.0
2016-Apr-26 09:33N 46°05' W 122°56'0 0.0
2016-Apr-26 08:33N 46°05' W 122°56'0 0.0
2016-Apr-26 07:33N 46°05' W 122°56'0 0.0
2016-Apr-26 06:33N 46°05' W 122°56'0 0.0
2016-Apr-26 05:34N 46°05' W 122°56'0 0.0
2016-Apr-26 04:33N 46°05' W 122°56'0 0.0
2016-Apr-26 03:33N 46°05' W 122°56'0 0.0
2016-Apr-26 02:34N 46°05' W 122°56'0 0.0
2016-Apr-26 01:34N 46°05' W 122°56'0 0.0
2016-Apr-26 00:33N 46°05' W 122°56'3 3.1
2016-Apr-25 23:33N 46°03' W 122°53'1 1.2
2016-Apr-25 22:33N 46°02' W 122°53'3 2.6
2016-Apr-25 21:33N 46°04' W 122°54'2 1.9
2016-Apr-25 20:33N 46°05' W 122°56'0 0.0
2016-Apr-25 19:33N 46°05' W 122°56'0 0.0
2016-Apr-25 18:33N 46°05' W 122°56'0 0.0
2016-Apr-25 17:33N 46°05' W 122°56'0 0.0
2016-Apr-25 16:33N 46°05' W 122°56'0 0.5
2016-Apr-25 15:33N 46°06' W 122°56'4 0.1
2016-Apr-24 00:34N 46°03' W 122°53'4 4.4
2016-Apr-23 23:33N 45°59' W 122°50'7 7.0
2016-Apr-23 22:33N 46°05' W 122°55'1 0.8
2016-Apr-23 21:33N 46°05' W 122°56'0 0.0
2016-Apr-23 20:33N 46°05' W 122°56'0 0.0
2016-Apr-23 19:33N 46°05' W 122°56'0 0.0
2016-Apr-23 18:34N 46°05' W 122°56'0 0.0
2016-Apr-23 17:34N 46°05' W 122°56'0 0.0
2016-Apr-23 16:33N 46°05' W 122°56'1 1.2
2016-Apr-23 15:33N 46°06' W 122°57'1 1.2
2016-Apr-23 14:33N 46°05' W 122°56'0 0.0
2016-Apr-23 13:33N 46°05' W 122°56'1 0.6
2016-Apr-23 12:33N 46°06' W 122°56'1 0.6
2016-Apr-23 11:33N 46°05' W 122°56'0 0.0
2016-Apr-23 10:33N 46°05' W 122°56'0 0.0
2016-Apr-23 09:27N 46°05' W 122°56'0 0.0
2016-Apr-23 08:33N 46°05' W 122°56'0 0.0
2016-Apr-23 07:33N 46°05' W 122°56'0 0.0
2016-Apr-23 06:33N 46°05' W 122°56'0 0.0
2016-Apr-23 05:33N 46°05' W 122°56'0 0.0
2016-Apr-23 04:33N 46°05' W 122°56'0 0.0
2016-Apr-23 03:33N 46°05' W 122°56'0 0.0
2016-Apr-23 02:33N 46°05' W 122°56'0 0.0
2016-Apr-23 01:27N 46°05' W 122°56'0 0.0
2016-Apr-23 00:33N 46°05' W 122°56'0 0.0
2016-Apr-22 23:27N 46°05' W 122°56'0 0.2
2016-Apr-22 22:33N 46°06' W 122°56'1 1.4
2016-Apr-22 21:30N 46°07' W 122°58'2 1.7
2016-Apr-22 20:32N 46°05' W 122°56'0 0.0
2016-Apr-22 19:32N 46°05' W 122°56'0 0.0
2016-Apr-22 18:32N 46°05' W 122°56'0 0.0
2016-Apr-22 17:32N 46°05' W 122°56'0 0.0
2016-Apr-22 16:32N 46°05' W 122°56'0 0.0
2016-Apr-22 15:32N 46°05' W 122°56'0 0.0
2016-Apr-22 14:32N 46°05' W 122°56'0 0.0
2016-Apr-22 13:26N 46°05' W 122°56'0 0.0
2016-Apr-22 12:26N 46°05' W 122°56'0 0.0
2016-Apr-22 11:32N 46°05' W 122°56'0 0.0
2016-Apr-22 10:29N 46°05' W 122°56'0 0.0
2016-Apr-22 09:32N 46°05' W 122°56'0 0.0
2016-Apr-22 08:32N 46°05' W 122°56'0 0.0
2016-Apr-22 07:32N 46°05' W 122°56'0 0.0
2016-Apr-22 06:32N 46°05' W 122°56'0 0.0
2016-Apr-22 05:29N 46°05' W 122°56'0 0.0
2016-Apr-22 04:26N 46°05' W 122°56'0 0.0
2016-Apr-22 03:26N 46°05' W 122°56'0 0.0
2016-Apr-22 02:32N 46°05' W 122°56'0 0.0
2016-Apr-22 01:32N 46°05' W 122°56'0 0.0
2016-Apr-22 00:32N 46°05' W 122°56'0 0.0
2016-Apr-21 23:32N 46°05' W 122°56'0 0.0
2016-Apr-21 22:26N 46°05' W 122°56'  

Dump ship's entire track history